sensor_id;sensor_type;location;lat;lon;timestamp;temperature;humidity
8965;DHT22;4517;49.020;12.066;2022-11-24T00:01:52;4.20;99.90
8965;DHT22;4517;49.020;12.066;2022-11-24T00:04:18;4.20;99.90
8965;DHT22;4517;49.020;12.066;2022-11-24T00:06:43;4.20;99.90
8965;DHT22;4517;49.020;12.066;2022-11-24T00:09:09;4.20;99.90
8965;DHT22;4517;49.020;12.066;2022-11-24T00:11:35;4.20;99.90
8965;DHT22;4517;49.020;12.066;2022-11-24T00:14:03;4.20;99.90
8965;DHT22;4517;49.020;12.066;2022-11-24T00:16:30;4.20;99.90
8965;DHT22;4517;49.020;12.066;2022-11-24T00:18:58;4.30;99.90
8965;DHT22;4517;49.020;12.066;2022-11-24T00:21:25;4.30;99.90
8965;DHT22;4517;49.020;12.066;2022-11-24T00:23:51;4.30;99.90
8965;DHT22;4517;49.020;12.066;2022-11-24T00:26:22;4.20;99.90
8965;DHT22;4517;49.020;12.066;2022-11-24T00:28:50;4.30;99.90
8965;DHT22;4517;49.020;12.066;2022-11-24T00:33:45;4.40;99.90
8965;DHT22;4517;49.020;12.066;2022-11-24T00:36:11;4.40;99.90
8965;DHT22;4517;49.020;12.066;2022-11-24T00:38:36;4.40;99.90
8965;DHT22;4517;49.020;12.066;2022-11-24T00:41:02;4.40;99.90
8965;DHT22;4517;49.020;12.066;2022-11-24T00:43:27;4.40;99.90
8965;DHT22;4517;49.020;12.066;2022-11-24T00:45:53;4.40;99.90
8965;DHT22;4517;49.020;12.066;2022-11-24T00:48:18;4.40;99.90
8965;DHT22;4517;49.020;12.066;2022-11-24T00:50:44;4.40;99.90
8965;DHT22;4517;49.020;12.066;2022-11-24T00:53:19;4.40;99.90
8965;DHT22;4517;49.020;12.066;2022-11-24T00:55:48;4.40;99.90
8965;DHT22;4517;49.020;12.066;2022-11-24T00:58:14;4.40;99.90
8965;DHT22;4517;49.020;12.066;2022-11-24T01:00:39;4.40;99.90
8965;DHT22;4517;49.020;12.066;2022-11-24T01:03:05;4.40;99.90
8965;DHT22;4517;49.020;12.066;2022-11-24T01:05:30;4.40;99.90
8965;DHT22;4517;49.020;12.066;2022-11-24T01:07:56;4.50;99.90
8965;DHT22;4517;49.020;12.066;2022-11-24T01:10:21;4.50;99.90
8965;DHT22;4517;49.020;12.066;2022-11-24T01:12:47;4.50;99.90
8965;DHT22;4517;49.020;12.066;2022-11-24T01:15:12;4.50;99.90
8965;DHT22;4517;49.020;12.066;2022-11-24T01:17:38;4.50;99.90
8965;DHT22;4517;49.020;12.066;2022-11-24T01:20:04;4.50;99.90
8965;DHT22;4517;49.020;12.066;2022-11-24T01:22:29;4.60;99.90
8965;DHT22;4517;49.020;12.066;2022-11-24T01:24:55;4.60;99.90
8965;DHT22;4517;49.020;12.066;2022-11-24T01:27:21;4.60;99.90
8965;DHT22;4517;49.020;12.066;2022-11-24T01:29:46;4.60;99.90
8965;DHT22;4517;49.020;12.066;2022-11-24T01:32:12;4.60;99.90
8965;DHT22;4517;49.020;12.066;2022-11-24T01:34:37;4.60;99.90
8965;DHT22;4517;49.020;12.066;2022-11-24T01:37:03;4.60;99.90
8965;DHT22;4517;49.020;12.066;2022-11-24T01:39:28;4.60;99.90
8965;DHT22;4517;49.020;12.066;2022-11-24T01:41:54;4.70;99.90
8965;DHT22;4517;49.020;12.066;2022-11-24T01:44:28;4.60;99.90
8965;DHT22;4517;49.020;12.066;2022-11-24T01:47:22;4.60;99.90
8965;DHT22;4517;49.020;12.066;2022-11-24T01:49:56;4.60;99.90
8965;DHT22;4517;49.020;12.066;2022-11-24T01:52:42;4.50;99.90
8965;DHT22;4517;49.020;12.066;2022-11-24T01:55:15;4.40;99.90
8965;DHT22;4517;49.020;12.066;2022-11-24T01:57:49;4.40;99.90
8965;DHT22;4517;49.020;12.066;2022-11-24T02:00:17;4.30;99.90
8965;DHT22;4517;49.020;12.066;2022-11-24T02:02:43;4.30;99.90
8965;DHT22;4517;49.020;12.066;2022-11-24T02:05:58;4.20;99.90
8965;DHT22;4517;49.020;12.066;2022-11-24T02:08:40;4.20;99.90
8965;DHT22;4517;49.020;12.066;2022-11-24T02:11:06;4.20;99.90
8965;DHT22;4517;49.020;12.066;2022-11-24T02:13:37;4.30;99.90
8965;DHT22;4517;49.020;12.066;2022-11-24T02:16:05;4.40;99.90
8965;DHT22;4517;49.020;12.066;2022-11-24T02:18:32;4.40;99.90
8965;DHT22;4517;49.020;12.066;2022-11-24T02:20:59;4.40;99.90
8965;DHT22;4517;49.020;12.066;2022-11-24T02:23:37;4.40;99.90
8965;DHT22;4517;49.020;12.066;2022-11-24T02:26:37;4.40;99.90
8965;DHT22;4517;49.020;12.066;2022-11-24T02:28:59;4.40;99.90
8965;DHT22;4517;49.020;12.066;2022-11-24T02:31:25;4.40;99.90
8965;DHT22;4517;49.020;12.066;2022-11-24T02:33:50;4.40;99.90
8965;DHT22;4517;49.020;12.066;2022-11-24T02:36:16;4.40;99.90
8965;DHT22;4517;49.020;12.066;2022-11-24T02:38:41;4.40;99.90
8965;DHT22;4517;49.020;12.066;2022-11-24T02:41:10;4.40;99.90
8965;DHT22;4517;49.020;12.066;2022-11-24T02:43:41;4.40;99.90
8965;DHT22;4517;49.020;12.066;2022-11-24T02:46:07;4.30;99.90
8965;DHT22;4517;49.020;12.066;2022-11-24T02:48:35;4.30;99.90
8965;DHT22;4517;49.020;12.066;2022-11-24T02:51:01;4.40;99.90
8965;DHT22;4517;49.020;12.066;2022-11-24T02:53:27;4.50;99.90
8965;DHT22;4517;49.020;12.066;2022-11-24T02:55:52;4.60;99.90
8965;DHT22;4517;49.020;12.066;2022-11-24T02:58:18;4.60;99.90
8965;DHT22;4517;49.020;12.066;2022-11-24T03:00:44;4.70;99.90
8965;DHT22;4517;49.020;12.066;2022-11-24T03:03:09;4.80;99.90
8965;DHT22;4517;49.020;12.066;2022-11-24T03:05:35;4.80;99.90
8965;DHT22;4517;49.020;12.066;2022-11-24T03:08:01;4.90;99.90
8965;DHT22;4517;49.020;12.066;2022-11-24T03:10:26;5.00;99.90
8965;DHT22;4517;49.020;12.066;2022-11-24T03:12:54;5.10;99.90
8965;DHT22;4517;49.020;12.066;2022-11-24T03:15:20;5.20;99.90
8965;DHT22;4517;49.020;12.066;2022-11-24T03:17:46;5.20;99.90
8965;DHT22;4517;49.020;12.066;2022-11-24T03:20:11;5.20;99.90
8965;DHT22;4517;49.020;12.066;2022-11-24T03:22:37;5.30;99.90
8965;DHT22;4517;49.020;12.066;2022-11-24T03:25:03;5.30;99.90
8965;DHT22;4517;49.020;12.066;2022-11-24T03:27:29;5.30;99.90
8965;DHT22;4517;49.020;12.066;2022-11-24T03:29:55;5.20;99.90
8965;DHT22;4517;49.020;12.066;2022-11-24T03:32:20;5.30;99.90
8965;DHT22;4517;49.020;12.066;2022-11-24T03:34:46;5.30;99.90
8965;DHT22;4517;49.020;12.066;2022-11-24T03:37:13;5.20;99.90
8965;DHT22;4517;49.020;12.066;2022-11-24T03:39:38;5.20;99.90
8965;DHT22;4517;49.020;12.066;2022-11-24T03:42:04;5.20;99.90
8965;DHT22;4517;49.020;12.066;2022-11-24T03:44:30;5.20;99.90
8965;DHT22;4517;49.020;12.066;2022-11-24T03:46:55;5.20;99.90
8965;DHT22;4517;49.020;12.066;2022-11-24T03:49:21;5.20;99.90
8965;DHT22;4517;49.020;12.066;2022-11-24T03:51:46;5.30;99.90
8965;DHT22;4517;49.020;12.066;2022-11-24T03:54:12;5.30;99.90
8965;DHT22;4517;49.020;12.066;2022-11-24T03:56:37;5.30;99.90
8965;DHT22;4517;49.020;12.066;2022-11-24T03:59:03;5.30;99.90
8965;DHT22;4517;49.020;12.066;2022-11-24T04:01:28;5.30;99.90
8965;DHT22;4517;49.020;12.066;2022-11-24T04:03:54;5.40;99.90
8965;DHT22;4517;49.020;12.066;2022-11-24T04:06:19;5.40;99.90
8965;DHT22;4517;49.020;12.066;2022-11-24T04:08:45;5.40;99.90
8965;DHT22;4517;49.020;12.066;2022-11-24T04:11:10;5.40;99.90
8965;DHT22;4517;49.020;12.066;2022-11-24T04:13:56;5.50;99.90
8965;DHT22;4517;49.020;12.066;2022-11-24T04:16:21;5.50;99.90
8965;DHT22;4517;49.020;12.066;2022-11-24T04:18:47;5.50;99.90
8965;DHT22;4517;49.020;12.066;2022-11-24T04:21:12;5.50;99.90
8965;DHT22;4517;49.020;12.066;2022-11-24T04:23:38;5.50;99.90
8965;DHT22;4517;49.020;12.066;2022-11-24T04:26:04;5.50;99.90
8965;DHT22;4517;49.020;12.066;2022-11-24T04:28:29;5.40;99.90
8965;DHT22;4517;49.020;12.066;2022-11-24T04:31:01;5.50;99.90
8965;DHT22;4517;49.020;12.066;2022-11-24T04:33:26;5.50;99.90
8965;DHT22;4517;49.020;12.066;2022-11-24T04:35:52;5.60;99.90
8965;DHT22;4517;49.020;12.066;2022-11-24T04:38:18;5.70;99.90
8965;DHT22;4517;49.020;12.066;2022-11-24T04:40:43;5.80;99.90
8965;DHT22;4517;49.020;12.066;2022-11-24T04:43:09;5.80;99.90
8965;DHT22;4517;49.020;12.066;2022-11-24T04:45:35;5.80;99.90
8965;DHT22;4517;49.020;12.066;2022-11-24T04:48:00;5.80;99.90
8965;DHT22;4517;49.020;12.066;2022-11-24T04:50:26;5.80;99.90
8965;DHT22;4517;49.020;12.066;2022-11-24T04:52:51;5.80;99.90
8965;DHT22;4517;49.020;12.066;2022-11-24T04:55:17;5.80;99.90
8965;DHT22;4517;49.020;12.066;2022-11-24T04:57:43;5.80;99.90
8965;DHT22;4517;49.020;12.066;2022-11-24T05:00:09;5.80;99.90
8965;DHT22;4517;49.020;12.066;2022-11-24T05:02:35;5.90;99.90
8965;DHT22;4517;49.020;12.066;2022-11-24T05:05:02;5.90;99.90
8965;DHT22;4517;49.020;12.066;2022-11-24T05:07:27;5.90;99.90
8965;DHT22;4517;49.020;12.066;2022-11-24T05:09:53;5.90;99.90
8965;DHT22;4517;49.020;12.066;2022-11-24T05:12:37;5.90;99.90
8965;DHT22;4517;49.020;12.066;2022-11-24T05:15:04;5.90;99.90
8965;DHT22;4517;49.020;12.066;2022-11-24T05:17:32;5.80;99.90
8965;DHT22;4517;49.020;12.066;2022-11-24T05:19:59;5.80;99.90
8965;DHT22;4517;49.020;12.066;2022-11-24T05:22:24;5.70;99.90
8965;DHT22;4517;49.020;12.066;2022-11-24T05:24:50;5.70;99.90
8965;DHT22;4517;49.020;12.066;2022-11-24T05:27:16;5.70;99.90
8965;DHT22;4517;49.020;12.066;2022-11-24T05:29:41;5.60;99.90
8965;DHT22;4517;49.020;12.066;2022-11-24T05:32:07;5.60;99.90
8965;DHT22;4517;49.020;12.066;2022-11-24T05:34:32;5.60;99.90
8965;DHT22;4517;49.020;12.066;2022-11-24T05:36:58;5.60;99.90
8965;DHT22;4517;49.020;12.066;2022-11-24T05:39:28;5.60;99.90
8965;DHT22;4517;49.020;12.066;2022-11-24T05:41:55;5.60;99.90
8965;DHT22;4517;49.020;12.066;2022-11-24T05:44:20;5.60;99.90
8965;DHT22;4517;49.020;12.066;2022-11-24T05:46:46;5.60;99.90
8965;DHT22;4517;49.020;12.066;2022-11-24T05:49:11;5.60;99.90
8965;DHT22;4517;49.020;12.066;2022-11-24T05:51:37;5.50;99.90
8965;DHT22;4517;49.020;12.066;2022-11-24T05:54:02;5.60;99.90
8965;DHT22;4517;49.020;12.066;2022-11-24T05:56:28;5.60;99.90
8965;DHT22;4517;49.020;12.066;2022-11-24T05:58:54;5.60;99.90
8965;DHT22;4517;49.020;12.066;2022-11-24T06:01:19;5.50;99.90
8965;DHT22;4517;49.020;12.066;2022-11-24T06:03:45;5.50;99.90
8965;DHT22;4517;49.020;12.066;2022-11-24T06:06:11;5.40;99.90
8965;DHT22;4517;49.020;12.066;2022-11-24T06:08:36;5.30;99.90
8965;DHT22;4517;49.020;12.066;2022-11-24T06:11:02;5.20;99.90
8965;DHT22;4517;49.020;12.066;2022-11-24T06:13:44;5.20;99.90
8965;DHT22;4517;49.020;12.066;2022-11-24T06:16:10;5.10;99.90
8965;DHT22;4517;49.020;12.066;2022-11-24T06:18:37;5.10;99.90
8965;DHT22;4517;49.020;12.066;2022-11-24T06:21:03;5.00;99.90
8965;DHT22;4517;49.020;12.066;2022-11-24T06:23:29;5.00;99.90
8965;DHT22;4517;49.020;12.066;2022-11-24T06:25:57;5.00;99.90
8965;DHT22;4517;49.020;12.066;2022-11-24T06:28:23;5.00;99.90
8965;DHT22;4517;49.020;12.066;2022-11-24T06:30:48;5.30;99.90
8965;DHT22;4517;49.020;12.066;2022-11-24T06:33:14;5.40;99.90
8965;DHT22;4517;49.020;12.066;2022-11-24T06:35:39;5.50;99.90
8965;DHT22;4517;49.020;12.066;2022-11-24T06:38:05;5.60;99.90
8965;DHT22;4517;49.020;12.066;2022-11-24T06:40:31;5.60;99.90
8965;DHT22;4517;49.020;12.066;2022-11-24T06:42:57;5.60;99.90
8965;DHT22;4517;49.020;12.066;2022-11-24T06:45:22;5.70;99.90
8965;DHT22;4517;49.020;12.066;2022-11-24T06:47:48;5.80;99.90
8965;DHT22;4517;49.020;12.066;2022-11-24T06:50:14;5.80;99.90
8965;DHT22;4517;49.020;12.066;2022-11-24T06:52:39;5.80;99.90
8965;DHT22;4517;49.020;12.066;2022-11-24T06:55:06;5.80;99.90
8965;DHT22;4517;49.020;12.066;2022-11-24T06:57:32;5.80;99.90
8965;DHT22;4517;49.020;12.066;2022-11-24T06:59:58;5.80;99.90
8965;DHT22;4517;49.020;12.066;2022-11-24T07:02:23;5.90;99.90
8965;DHT22;4517;49.020;12.066;2022-11-24T07:04:49;5.90;99.90
8965;DHT22;4517;49.020;12.066;2022-11-24T07:07:14;5.90;99.90
8965;DHT22;4517;49.020;12.066;2022-11-24T07:09:40;5.90;99.90
8965;DHT22;4517;49.020;12.066;2022-11-24T07:12:05;5.90;99.90
8965;DHT22;4517;49.020;12.066;2022-11-24T07:14:31;6.00;99.90
8965;DHT22;4517;49.020;12.066;2022-11-24T07:16:57;6.10;99.90
8965;DHT22;4517;49.020;12.066;2022-11-24T07:19:22;6.10;99.90
8965;DHT22;4517;49.020;12.066;2022-11-24T07:21:48;6.30;99.90
8965;DHT22;4517;49.020;12.066;2022-11-24T07:24:13;6.30;99.90
8965;DHT22;4517;49.020;12.066;2022-11-24T07:26:39;6.40;99.90
8965;DHT22;4517;49.020;12.066;2022-11-24T07:29:04;6.40;99.90
8965;DHT22;4517;49.020;12.066;2022-11-24T07:31:30;6.30;99.90
8965;DHT22;4517;49.020;12.066;2022-11-24T07:33:56;6.40;99.90
8965;DHT22;4517;49.020;12.066;2022-11-24T07:36:22;6.30;99.90
8965;DHT22;4517;49.020;12.066;2022-11-24T07:38:48;6.30;99.90
8965;DHT22;4517;49.020;12.066;2022-11-24T07:41:16;6.20;99.90
8965;DHT22;4517;49.020;12.066;2022-11-24T07:43:44;6.30;99.90
8965;DHT22;4517;49.020;12.066;2022-11-24T07:46:12;6.40;99.90
8965;DHT22;4517;49.020;12.066;2022-11-24T07:48:37;6.50;99.90
8965;DHT22;4517;49.020;12.066;2022-11-24T07:51:04;6.60;99.90
8965;DHT22;4517;49.020;12.066;2022-11-24T07:53:31;6.70;99.90
8965;DHT22;4517;49.020;12.066;2022-11-24T07:55:59;6.80;99.90
8965;DHT22;4517;49.020;12.066;2022-11-24T07:58:27;6.90;99.90
8965;DHT22;4517;49.020;12.066;2022-11-24T08:00:53;7.00;99.90
8965;DHT22;4517;49.020;12.066;2022-11-24T08:03:19;7.00;99.90
8965;DHT22;4517;49.020;12.066;2022-11-24T08:05:53;7.00;99.90
8965;DHT22;4517;49.020;12.066;2022-11-24T08:08:18;7.00;99.90
8965;DHT22;4517;49.020;12.066;2022-11-24T08:10:44;6.90;99.90
8965;DHT22;4517;49.020;12.066;2022-11-24T08:13:09;6.80;99.90
8965;DHT22;4517;49.020;12.066;2022-11-24T08:15:35;6.80;99.90
8965;DHT22;4517;49.020;12.066;2022-11-24T08:18:00;6.80;99.90
8965;DHT22;4517;49.020;12.066;2022-11-24T08:20:27;6.80;99.90
8965;DHT22;4517;49.020;12.066;2022-11-24T08:22:56;6.80;99.90
8965;DHT22;4517;49.020;12.066;2022-11-24T08:25:23;6.90;99.90
8965;DHT22;4517;49.020;12.066;2022-11-24T08:27:51;6.80;99.90
8965;DHT22;4517;49.020;12.066;2022-11-24T08:30:17;6.80;99.90
8965;DHT22;4517;49.020;12.066;2022-11-24T08:32:44;6.90;99.90
8965;DHT22;4517;49.020;12.066;2022-11-24T08:35:09;7.00;99.90
8965;DHT22;4517;49.020;12.066;2022-11-24T08:37:36;7.20;99.90
8965;DHT22;4517;49.020;12.066;2022-11-24T08:40:02;7.30;99.90
8965;DHT22;4517;49.020;12.066;2022-11-24T08:42:28;7.40;99.90
8965;DHT22;4517;49.020;12.066;2022-11-24T08:44:53;7.40;99.90
8965;DHT22;4517;49.020;12.066;2022-11-24T08:47:19;7.50;99.90
8965;DHT22;4517;49.020;12.066;2022-11-24T08:49:46;7.50;99.90
8965;DHT22;4517;49.020;12.066;2022-11-24T08:52:11;7.60;99.90
8965;DHT22;4517;49.020;12.066;2022-11-24T08:54:37;7.70;99.90
8965;DHT22;4517;49.020;12.066;2022-11-24T08:57:02;7.70;99.90
8965;DHT22;4517;49.020;12.066;2022-11-24T08:59:28;7.80;99.90
8965;DHT22;4517;49.020;12.066;2022-11-24T09:01:53;7.90;99.90
8965;DHT22;4517;49.020;12.066;2022-11-24T09:04:19;7.90;99.90
8965;DHT22;4517;49.020;12.066;2022-11-24T09:06:44;8.00;99.90
8965;DHT22;4517;49.020;12.066;2022-11-24T09:09:10;8.10;99.90
8965;DHT22;4517;49.020;12.066;2022-11-24T09:11:36;8.10;99.90
8965;DHT22;4517;49.020;12.066;2022-11-24T09:14:02;8.10;99.90
8965;DHT22;4517;49.020;12.066;2022-11-24T09:16:28;8.10;99.90
8965;DHT22;4517;49.020;12.066;2022-11-24T09:21:20;8.50;99.90
8965;DHT22;4517;49.020;12.066;2022-11-24T09:23:48;8.70;99.90
8965;DHT22;4517;49.020;12.066;2022-11-24T09:26:22;8.70;99.90
8965;DHT22;4517;49.020;12.066;2022-11-24T09:28:49;8.70;99.90
8965;DHT22;4517;49.020;12.066;2022-11-24T09:31:18;8.70;99.90
8965;DHT22;4517;49.020;12.066;2022-11-24T09:33:45;8.80;99.90
8965;DHT22;4517;49.020;12.066;2022-11-24T09:36:11;8.90;99.90
8965;DHT22;4517;49.020;12.066;2022-11-24T09:38:37;9.00;99.90
8965;DHT22;4517;49.020;12.066;2022-11-24T09:44:01;9.20;99.90
8965;DHT22;4517;49.020;12.066;2022-11-24T09:49:16;9.40;99.90
8965;DHT22;4517;49.020;12.066;2022-11-24T09:51:45;9.60;99.90
8965;DHT22;4517;49.020;12.066;2022-11-24T09:54:17;9.60;99.90
8965;DHT22;4517;49.020;12.066;2022-11-24T09:56:45;9.50;99.90
8965;DHT22;4517;49.020;12.066;2022-11-24T09:59:17;9.50;99.90
8965;DHT22;4517;49.020;12.066;2022-11-24T10:01:44;9.60;99.90
8965;DHT22;4517;49.020;12.066;2022-11-24T10:04:27;9.60;99.90
8965;DHT22;4517;49.020;12.066;2022-11-24T10:07:14;9.60;99.90
8965;DHT22;4517;49.020;12.066;2022-11-24T10:09:44;9.60;99.90
8965;DHT22;4517;49.020;12.066;2022-11-24T10:15:16;9.70;99.90
8965;DHT22;4517;49.020;12.066;2022-11-24T10:28:54;10.40;99.90
8965;DHT22;4517;49.020;12.066;2022-11-24T10:31:29;10.40;99.90
8965;DHT22;4517;49.020;12.066;2022-11-24T10:34:04;10.50;99.90
8965;DHT22;4517;49.020;12.066;2022-11-24T10:36:47;10.70;99.90
8965;DHT22;4517;49.020;12.066;2022-11-24T10:39:22;10.90;99.90
8965;DHT22;4517;49.020;12.066;2022-11-24T10:42:11;11.00;99.90
8965;DHT22;4517;49.020;12.066;2022-11-24T10:44:40;10.80;99.90
8965;DHT22;4517;49.020;12.066;2022-11-24T10:47:19;10.50;99.90
8965;DHT22;4517;49.020;12.066;2022-11-24T10:50:03;10.40;99.90
8965;DHT22;4517;49.020;12.066;2022-11-24T10:52:35;10.30;99.90
8965;DHT22;4517;49.020;12.066;2022-11-24T10:55:05;9.90;99.90
8965;DHT22;4517;49.020;12.066;2022-11-24T10:57:38;9.70;99.90
8965;DHT22;4517;49.020;12.066;2022-11-24T11:02:42;9.20;99.90
8965;DHT22;4517;49.020;12.066;2022-11-24T11:10:40;8.30;99.90
8965;DHT22;4517;49.020;12.066;2022-11-24T11:13:29;8.30;99.90
8965;DHT22;4517;49.020;12.066;2022-11-24T11:15:56;8.50;99.90
8965;DHT22;4517;49.020;12.066;2022-11-24T11:18:29;8.70;99.90
8965;DHT22;4517;49.020;12.066;2022-11-24T11:20:57;8.70;99.90
8965;DHT22;4517;49.020;12.066;2022-11-24T11:23:29;8.80;99.90
8965;DHT22;4517;49.020;12.066;2022-11-24T11:28:59;8.80;99.90
8965;DHT22;4517;49.020;12.066;2022-11-24T11:31:26;8.80;99.90
8965;DHT22;4517;49.020;12.066;2022-11-24T11:34:00;8.70;99.90
8965;DHT22;4517;49.020;12.066;2022-11-24T11:36:27;8.50;99.90
8965;DHT22;4517;49.020;12.066;2022-11-24T11:38:53;8.50;99.90
8965;DHT22;4517;49.020;12.066;2022-11-24T11:41:25;8.40;99.90
8965;DHT22;4517;49.020;12.066;2022-11-24T11:44:03;8.40;99.90
8965;DHT22;4517;49.020;12.066;2022-11-24T11:46:31;8.40;99.90
8965;DHT22;4517;49.020;12.066;2022-11-24T11:48:57;8.40;99.90
8965;DHT22;4517;49.020;12.066;2022-11-24T11:54:36;8.30;99.90
8965;DHT22;4517;49.020;12.066;2022-11-24T11:57:19;8.30;99.90
8965;DHT22;4517;49.020;12.066;2022-11-24T12:08:38;8.30;99.90
8965;DHT22;4517;49.020;12.066;2022-11-24T12:11:32;8.30;99.90
8965;DHT22;4517;49.020;12.066;2022-11-24T12:14:16;8.10;99.90
8965;DHT22;4517;49.020;12.066;2022-11-24T12:17:12;8.00;99.90
8965;DHT22;4517;49.020;12.066;2022-11-24T12:22:50;8.00;99.90
8965;DHT22;4517;49.020;12.066;2022-11-24T12:25:41;8.00;99.90
8965;DHT22;4517;49.020;12.066;2022-11-24T12:28:50;8.00;99.90
8965;DHT22;4517;49.020;12.066;2022-11-24T12:31:45;8.00;99.90
8965;DHT22;4517;49.020;12.066;2022-11-24T12:34:47;8.00;99.90
8965;DHT22;4517;49.020;12.066;2022-11-24T12:43:25;8.00;99.90
8965;DHT22;4517;49.020;12.066;2022-11-24T12:48:41;7.90;99.90
8965;DHT22;4517;49.020;12.066;2022-11-24T12:51:16;7.90;99.90
8965;DHT22;4517;49.020;12.066;2022-11-24T12:53:44;8.00;99.90
8965;DHT22;4517;49.020;12.066;2022-11-24T12:56:12;8.10;99.90
8965;DHT22;4517;49.020;12.066;2022-11-24T13:04:30;8.70;99.90
8965;DHT22;4517;49.020;12.066;2022-11-24T13:07:09;9.00;99.90
8965;DHT22;4517;49.020;12.066;2022-11-24T13:09:36;9.10;99.90
8965;DHT22;4517;49.020;12.066;2022-11-24T13:12:11;9.30;99.90
8965;DHT22;4517;49.020;12.066;2022-11-24T13:14:38;9.40;99.90
8965;DHT22;4517;49.020;12.066;2022-11-24T13:17:32;9.50;99.90
8965;DHT22;4517;49.020;12.066;2022-11-24T13:22:54;9.60;99.90
8965;DHT22;4517;49.020;12.066;2022-11-24T13:25:24;9.60;99.90
8965;DHT22;4517;49.020;12.066;2022-11-24T13:27:57;9.50;99.90
8965;DHT22;4517;49.020;12.066;2022-11-24T13:35:26;9.80;99.90
8965;DHT22;4517;49.020;12.066;2022-11-24T13:37:52;9.90;99.90
8965;DHT22;4517;49.020;12.066;2022-11-24T13:56:06;9.60;99.90
8965;DHT22;4517;49.020;12.066;2022-11-24T13:58:56;9.40;99.90
8965;DHT22;4517;49.020;12.066;2022-11-24T14:01:32;9.20;99.90
8965;DHT22;4517;49.020;12.066;2022-11-24T14:04:35;9.20;99.90
8965;DHT22;4517;49.020;12.066;2022-11-24T14:07:05;9.10;99.90
8965;DHT22;4517;49.020;12.066;2022-11-24T14:09:36;9.10;99.90
8965;DHT22;4517;49.020;12.066;2022-11-24T14:12:19;9.10;99.90
8965;DHT22;4517;49.020;12.066;2022-11-24T14:14:47;9.00;99.90
8965;DHT22;4517;49.020;12.066;2022-11-24T14:19:42;8.90;99.90
8965;DHT22;4517;49.020;12.066;2022-11-24T14:22:30;8.90;99.90
8965;DHT22;4517;49.020;12.066;2022-11-24T14:24:58;8.90;99.90
8965;DHT22;4517;49.020;12.066;2022-11-24T14:27:30;8.80;99.90
8965;DHT22;4517;49.020;12.066;2022-11-24T14:30:20;8.70;99.90
8965;DHT22;4517;49.020;12.066;2022-11-24T14:35:28;8.60;99.90
8965;DHT22;4517;49.020;12.066;2022-11-24T14:37:54;8.50;99.90
8965;DHT22;4517;49.020;12.066;2022-11-24T14:43:23;8.30;99.90
8965;DHT22;4517;49.020;12.066;2022-11-24T14:48:22;8.20;99.90
8965;DHT22;4517;49.020;12.066;2022-11-24T14:50:48;8.10;99.90
8965;DHT22;4517;49.020;12.066;2022-11-24T14:53:15;8.00;99.90
8965;DHT22;4517;49.020;12.066;2022-11-24T14:55:42;7.90;99.90
8965;DHT22;4517;49.020;12.066;2022-11-24T14:58:29;7.70;99.90
8965;DHT22;4517;49.020;12.066;2022-11-24T15:01:21;7.80;99.90
8965;DHT22;4517;49.020;12.066;2022-11-24T15:04:17;7.80;99.90
8965;DHT22;4517;49.020;12.066;2022-11-24T15:06:48;7.80;99.90
8965;DHT22;4517;49.020;12.066;2022-11-24T15:09:41;7.80;99.90
8965;DHT22;4517;49.020;12.066;2022-11-24T15:12:17;7.80;99.90
8965;DHT22;4517;49.020;12.066;2022-11-24T15:14:50;7.80;99.90
8965;DHT22;4517;49.020;12.066;2022-11-24T15:17:22;7.80;99.90
8965;DHT22;4517;49.020;12.066;2022-11-24T15:19:56;7.80;99.90
8965;DHT22;4517;49.020;12.066;2022-11-24T15:22:36;7.80;99.90
8965;DHT22;4517;49.020;12.066;2022-11-24T15:25:02;7.70;99.90
8965;DHT22;4517;49.020;12.066;2022-11-24T15:27:49;7.70;99.90
8965;DHT22;4517;49.020;12.066;2022-11-24T15:30:15;7.70;99.90
8965;DHT22;4517;49.020;12.066;2022-11-24T15:32:48;7.60;99.90
8965;DHT22;4517;49.020;12.066;2022-11-24T15:35:14;7.50;99.90
8965;DHT22;4517;49.020;12.066;2022-11-24T15:37:39;7.40;99.90
8965;DHT22;4517;49.020;12.066;2022-11-24T15:40:05;7.30;99.90
8965;DHT22;4517;49.020;12.066;2022-11-24T15:42:31;7.20;99.90
8965;DHT22;4517;49.020;12.066;2022-11-24T15:44:57;7.30;99.90
8965;DHT22;4517;49.020;12.066;2022-11-24T15:47:22;7.30;99.90
8965;DHT22;4517;49.020;12.066;2022-11-24T15:49:48;7.40;99.90
8965;DHT22;4517;49.020;12.066;2022-11-24T15:52:13;7.30;99.90
8965;DHT22;4517;49.020;12.066;2022-11-24T15:54:43;7.30;99.90
8965;DHT22;4517;49.020;12.066;2022-11-24T15:57:11;7.30;99.90
8965;DHT22;4517;49.020;12.066;2022-11-24T15:59:37;7.30;99.90
8965;DHT22;4517;49.020;12.066;2022-11-24T16:02:02;7.10;99.90
8965;DHT22;4517;49.020;12.066;2022-11-24T16:04:28;6.90;99.90
8965;DHT22;4517;49.020;12.066;2022-11-24T16:06:54;6.80;99.90
8965;DHT22;4517;49.020;12.066;2022-11-24T16:09:19;6.70;99.90
8965;DHT22;4517;49.020;12.066;2022-11-24T16:11:45;6.50;99.90
8965;DHT22;4517;49.020;12.066;2022-11-24T16:14:11;6.40;99.90
8965;DHT22;4517;49.020;12.066;2022-11-24T16:16:36;6.40;99.90
8965;DHT22;4517;49.020;12.066;2022-11-24T16:19:02;6.20;99.90
8965;DHT22;4517;49.020;12.066;2022-11-24T16:21:27;6.00;99.90
8965;DHT22;4517;49.020;12.066;2022-11-24T16:23:53;5.80;99.90
8965;DHT22;4517;49.020;12.066;2022-11-24T16:26:19;5.70;99.90
8965;DHT22;4517;49.020;12.066;2022-11-24T16:28:44;5.60;99.90
8965;DHT22;4517;49.020;12.066;2022-11-24T16:31:10;5.50;99.90
8965;DHT22;4517;49.020;12.066;2022-11-24T16:33:37;5.50;99.90
8965;DHT22;4517;49.020;12.066;2022-11-24T16:36:05;5.40;99.90
8965;DHT22;4517;49.020;12.066;2022-11-24T16:38:31;5.30;99.90
8965;DHT22;4517;49.020;12.066;2022-11-24T16:40:56;5.20;99.90
8965;DHT22;4517;49.020;12.066;2022-11-24T16:43:22;5.10;99.90
8965;DHT22;4517;49.020;12.066;2022-11-24T16:48:42;5.10;99.90
8965;DHT22;4517;49.020;12.066;2022-11-24T16:51:09;5.10;99.90
8965;DHT22;4517;49.020;12.066;2022-11-24T16:53:35;5.10;99.90
8965;DHT22;4517;49.020;12.066;2022-11-24T16:56:01;5.00;99.90
8965;DHT22;4517;49.020;12.066;2022-11-24T16:58:26;4.90;99.90
8965;DHT22;4517;49.020;12.066;2022-11-24T17:00:52;4.80;99.90
8965;DHT22;4517;49.020;12.066;2022-11-24T17:03:18;4.70;99.90
8965;DHT22;4517;49.020;12.066;2022-11-24T17:05:43;4.60;99.90
8965;DHT22;4517;49.020;12.066;2022-11-24T17:08:09;4.50;99.90
8965;DHT22;4517;49.020;12.066;2022-11-24T17:10:37;4.50;99.90
8965;DHT22;4517;49.020;12.066;2022-11-24T17:13:03;4.40;99.90
8965;DHT22;4517;49.020;12.066;2022-11-24T17:15:28;4.40;99.90
8965;DHT22;4517;49.020;12.066;2022-11-24T17:17:55;4.30;99.90
8965;DHT22;4517;49.020;12.066;2022-11-24T17:20:20;4.30;99.90
8965;DHT22;4517;49.020;12.066;2022-11-24T17:22:46;4.20;99.90
8965;DHT22;4517;49.020;12.066;2022-11-24T17:25:11;4.10;99.90
8965;DHT22;4517;49.020;12.066;2022-11-24T17:27:37;4.10;99.90
8965;DHT22;4517;49.020;12.066;2022-11-24T17:30:03;4.00;99.90
8965;DHT22;4517;49.020;12.066;2022-11-24T17:32:28;4.00;99.90
8965;DHT22;4517;49.020;12.066;2022-11-24T17:34:54;3.90;99.90
8965;DHT22;4517;49.020;12.066;2022-11-24T17:37:19;3.90;99.90
8965;DHT22;4517;49.020;12.066;2022-11-24T17:39:45;3.90;99.90
8965;DHT22;4517;49.020;12.066;2022-11-24T17:42:10;3.90;99.90
8965;DHT22;4517;49.020;12.066;2022-11-24T17:44:36;3.90;99.90
8965;DHT22;4517;49.020;12.066;2022-11-24T17:47:01;3.90;99.90
8965;DHT22;4517;49.020;12.066;2022-11-24T17:49:27;4.00;99.90
8965;DHT22;4517;49.020;12.066;2022-11-24T17:51:52;4.20;99.90
8965;DHT22;4517;49.020;12.066;2022-11-24T17:54:18;4.30;99.90
8965;DHT22;4517;49.020;12.066;2022-11-24T17:56:44;4.50;99.90